createdAt,value
2022-12-15T00:02:20.168Z,98847.13
2022-12-15T00:05:27.185Z,98846.31
2022-12-15T00:08:33.113Z,98848.97
2022-12-15T00:11:40.344Z,98845.63
2022-12-15T00:14:46.406Z,98854.06
2022-12-15T00:17:52.498Z,98856.59
2022-12-15T00:20:58.376Z,98861.63
2022-12-15T00:24:04.613Z,98864.13
2022-12-15T00:27:11.904Z,98870.03
2022-12-15T00:30:18.165Z,98875.91
2022-12-15T00:33:28.622Z,98872.59
2022-12-15T00:36:34.948Z,98878.53
2022-12-15T00:39:23.402Z,98878.53
2022-12-15T00:42:13.216Z,98876.03
2022-12-15T00:45:02.044Z,98881.97
2022-12-15T00:47:49.506Z,98882.00
2022-12-15T00:50:53.176Z,98876.13
2022-12-15T00:53:59.536Z,98882.88
2022-12-15T00:57:05.731Z,98886.28
2022-12-15T01:00:12.993Z,98893.00
2022-12-15T01:03:19.424Z,98898.06
2022-12-15T01:06:26.170Z,98910.69
2022-12-15T01:09:32.244Z,98905.63
2022-12-15T01:12:38.267Z,98911.50
2022-12-15T01:15:45.927Z,98909.81
2022-12-15T01:18:52.381Z,98910.63
2022-12-15T01:21:42.176Z,98918.16
2022-12-15T01:24:30.597Z,98919.81
2022-12-15T01:27:19.136Z,98920.63
2022-12-15T01:30:10.640Z,98918.97
2022-12-15T01:33:00.415Z,98913.06
2022-12-15T01:35:57.837Z,98924.00
2022-12-15T01:38:52.291Z,98929.91
2022-12-15T01:41:41.419Z,98936.72
2022-12-15T01:44:29.803Z,98935.13
2022-12-15T01:47:18.281Z,98946.06
2022-12-15T01:50:09.953Z,98941.03
2022-12-15T01:52:58.400Z,98943.53
2022-12-15T01:55:49.616Z,98945.19
2022-12-15T01:58:38.524Z,98951.09
2022-12-15T02:01:26.979Z,98957.00
2022-12-15T02:04:15.423Z,98950.25
2022-12-15T02:07:05.217Z,98955.25
2022-12-15T02:09:55.150Z,98947.63
2022-12-15T02:12:46.603Z,98942.56
2022-12-15T02:15:37.369Z,98939.19
2022-12-15T02:18:29.179Z,98947.63
2022-12-15T02:21:18.961Z,98950.16
2022-12-15T02:24:41.079Z,98952.72
2022-12-15T02:27:51.583Z,98948.50
2022-12-15T02:30:46.600Z,98946.78
2022-12-15T02:33:35.103Z,98945.03
2022-12-15T02:36:26.786Z,98953.41
2022-12-15T02:39:15.254Z,98956.72
2022-12-15T02:42:03.690Z,98958.41
2022-12-15T02:44:53.831Z,98961.78
2022-12-15T02:47:46.749Z,98955.88
2022-12-15T02:50:47.457Z,98960.94
2022-12-15T02:53:56.231Z,98958.44
2022-12-15T02:56:47.126Z,98963.44
2022-12-15T02:59:40.229Z,98966.81
2022-12-15T03:02:30.858Z,98971.03
2022-12-15T03:05:21.466Z,98975.25
2022-12-15T03:08:10.127Z,98971.03
2022-12-15T03:10:58.608Z,98978.69
2022-12-15T03:13:47.194Z,98975.38
2022-12-15T03:16:38.435Z,98979.59
2022-12-15T03:19:27.321Z,98981.34
2022-12-15T03:22:17.100Z,98978.03
2022-12-15T03:25:06.736Z,98987.34
2022-12-15T03:27:55.177Z,98989.91
2022-12-15T03:30:43.584Z,98999.28
2022-12-15T03:33:34.676Z,99001.06
2022-12-15T03:36:23.589Z,99007.06
2022-12-15T03:39:13.427Z,99021.47
2022-12-15T03:42:01.925Z,99025.72
2022-12-15T03:44:50.447Z,99028.25
2022-12-15T03:47:42.349Z,99029.94
2022-12-15T03:50:30.845Z,99033.34
2022-12-15T03:53:19.293Z,99026.66
2022-12-15T03:56:09.638Z,99023.31
2022-12-15T03:58:58.123Z,99022.44
2022-12-15T04:01:48.204Z,99028.38
2022-12-15T04:04:36.845Z,99034.28
2022-12-15T04:07:25.268Z,99038.53
2022-12-15T04:10:13.868Z,99031.03
2022-12-15T04:13:04.905Z,99033.59
2022-12-15T04:15:53.331Z,99040.34
2022-12-15T04:18:41.752Z,99044.63
2022-12-15T04:21:29.171Z,99045.50
2022-12-15T04:24:35.269Z,99042.16
2022-12-15T04:27:41.436Z,99044.69
2022-12-15T04:30:49.002Z,99051.44
2022-12-15T04:33:55.572Z,99051.44
2022-12-15T04:37:02.832Z,99050.59
2022-12-15T04:40:09.930Z,99028.75
2022-12-15T04:43:16.227Z,99032.09
2022-12-15T04:46:23.984Z,99029.56
2022-12-15T04:49:30.102Z,99023.69
2022-12-15T04:52:36.014Z,99021.97
2022-12-15T04:55:41.826Z,99026.16
2022-12-15T04:58:48.010Z,99030.34
2022-12-15T05:01:55.603Z,99046.28
2022-12-15T05:05:01.870Z,99048.75
2022-12-15T05:08:07.809Z,99055.41
2022-12-15T05:11:13.688Z,99053.72
2022-12-15T05:14:19.992Z,99055.34
2022-12-15T05:17:27.398Z,99046.88
2022-12-15T05:20:33.411Z,99050.25
2022-12-15T05:23:39.391Z,99037.59
2022-12-15T05:26:52.114Z,99033.38
2022-12-15T05:29:58.873Z,99034.22
2022-12-15T05:32:49.895Z,99045.19
2022-12-15T05:35:38.487Z,99048.56
2022-12-15T05:38:26.924Z,99055.34
2022-12-15T05:41:15.360Z,99060.41
2022-12-15T05:44:03.874Z,99074.69
2022-12-15T05:46:52.421Z,99072.19
2022-12-15T05:49:42.411Z,99078.06
2022-12-15T05:52:30.913Z,99079.75
2022-12-15T05:55:19.654Z,99076.44
2022-12-15T05:58:08.040Z,99084.03
2022-12-15T06:00:56.874Z,99080.66
2022-12-15T06:03:45.524Z,99080.69
2022-12-15T06:06:35.333Z,99084.03
2022-12-15T06:09:23.757Z,99086.59
2022-12-15T06:12:12.235Z,99089.97
2022-12-15T06:15:01.004Z,99102.59
2022-12-15T06:17:49.741Z,99108.50
2022-12-15T06:20:38.295Z,99108.53
2022-12-15T06:23:29.649Z,99116.06
2022-12-15T06:26:20.436Z,99122.84
2022-12-15T06:29:10.364Z,99114.41
2022-12-15T06:31:58.744Z,99110.22
2022-12-15T06:34:47.117Z,99120.31
2022-12-15T06:37:35.668Z,99115.31
2022-12-15T06:40:25.456Z,99100.19
2022-12-15T06:43:13.871Z,99097.69
2022-12-15T06:46:02.910Z,99090.97
2022-12-15T06:48:51.276Z,99094.31
2022-12-15T06:51:39.608Z,99101.91
2022-12-15T06:54:28.082Z,99102.75
2022-12-15T06:57:17.810Z,99114.50
2022-12-15T07:00:07.889Z,99129.66
2022-12-15T07:02:56.371Z,99136.34
2022-12-15T07:05:24.913Z,99142.25
2022-12-15T07:07:53.497Z,99136.38
2022-12-15T07:10:21.634Z,99137.22
2022-12-15T07:12:51.278Z,99140.56
2022-12-15T07:15:19.853Z,99141.44
2022-12-15T07:17:48.084Z,99143.09
2022-12-15T07:20:16.376Z,99147.31
2022-12-15T07:22:44.546Z,99148.97
2022-12-15T07:25:12.646Z,99145.63
2022-12-15T07:27:41.212Z,99142.25
2022-12-15T07:30:12.938Z,99133.00
2022-12-15T07:32:41.548Z,99133.84
2022-12-15T07:35:10.555Z,99133.03
2022-12-15T07:37:38.678Z,99137.22
2022-12-15T07:40:09.067Z,99138.91
2022-12-15T07:42:37.219Z,99143.09
2022-12-15T07:45:06.917Z,99138.06
2022-12-15T07:47:36.977Z,99139.72
2022-12-15T07:50:05.980Z,99138.91
2022-12-15T07:52:34.741Z,99138.88
2022-12-15T07:55:03.157Z,99135.53
2022-12-15T07:57:32.782Z,99137.22
2022-12-15T08:00:01.012Z,99131.31
2022-12-15T08:02:41.368Z,99134.72
2022-12-15T08:05:10.314Z,99141.41
2022-12-15T08:07:38.449Z,99128.81
2022-12-15T08:10:07.887Z,99133.88
2022-12-15T08:12:36.084Z,99132.16
2022-12-15T08:15:04.791Z,99133.88
2022-12-15T08:17:33.195Z,99126.28
2022-12-15T08:20:09.530Z,99141.44
2022-12-15T08:22:38.147Z,99141.44
2022-12-15T08:25:07.085Z,99155.69
2022-12-15T08:27:46.267Z,99159.91
2022-12-15T08:30:19.495Z,99175.84
2022-12-15T08:32:51.906Z,99168.28
2022-12-15T08:35:54.713Z,99176.69
2022-12-15T08:38:09.842Z,99185.94
2022-12-15T08:40:38.023Z,99192.63
2022-12-15T08:43:06.693Z,99205.25
2022-12-15T08:45:35.278Z,99209.44
2022-12-15T08:48:03.578Z,99222.06
2022-12-15T08:50:33.213Z,99232.16
2022-12-15T08:53:29.709Z,99227.09
2022-12-15T08:55:49.567Z,99213.63
2022-12-15T08:58:18.044Z,99206.03
2022-12-15T09:00:46.252Z,99203.53
2022-12-15T09:03:14.399Z,99211.06
2022-12-15T09:05:44.034Z,99208.56
2022-12-15T09:08:12.197Z,99210.22
2022-12-15T09:10:42.159Z,99216.88
2022-12-15T09:13:10.544Z,99220.13
2022-12-15T09:16:08.471Z,99231.81
2022-12-15T09:18:31.507Z,99239.25
2022-12-15T09:21:03.556Z,99240.75
2022-12-15T09:23:32.261Z,99245.69
2022-12-15T09:26:01.596Z,99242.06
2022-12-15T09:28:30.280Z,99217.75
2022-12-15T09:31:03.985Z,99214.84
2022-12-15T09:33:33.047Z,99206.59
2022-12-15T09:36:03.538Z,99204.06
2022-12-15T09:38:32.084Z,99193.63
2022-12-15T09:41:07.320Z,99195.50
2022-12-15T09:43:46.648Z,99194.13
2022-12-15T09:46:22.049Z,99187.84
2022-12-15T09:48:50.384Z,99176.09
2022-12-15T09:51:19.984Z,99174.25
2022-12-15T09:53:56.424Z,99171.09
2022-12-15T09:56:28.616Z,99174.19
2022-12-15T09:59:01.088Z,99176.78
2022-12-15T10:01:33.493Z,99179.44
2022-12-15T10:04:05.499Z,99175.66
2022-12-15T10:06:35.982Z,99176.94
2022-12-15T10:09:11.089Z,99172.31
2022-12-15T10:11:50.157Z,99159.13
2022-12-15T10:14:25.903Z,99174.63
2022-12-15T10:17:03.962Z,99171.56
2022-12-15T10:19:38.599Z,99177.94
2022-12-15T10:22:12.316Z,99164.34
2022-12-15T10:27:55.539Z,99147.22
2022-12-15T10:30:23.866Z,99141.41
2022-12-15T10:32:55.765Z,99135.97
2022-12-15T10:35:25.326Z,99129.94
2022-12-15T10:37:55.082Z,99125.44
2022-12-15T10:40:50.820Z,99130.19
2022-12-15T10:43:34.476Z,99129.63
2022-12-15T10:46:08.335Z,99144.97
2022-12-15T10:48:37.001Z,99138.47
2022-12-15T10:51:26.027Z,99144.69
2022-12-15T10:54:05.386Z,99127.41
2022-12-15T10:56:34.789Z,99130.19
2022-12-15T10:59:05.309Z,99134.25
2022-12-15T11:01:35.524Z,99131.75
2022-12-15T11:04:04.329Z,99131.31
2022-12-15T11:06:34.125Z,99138.78
2022-12-15T11:09:29.410Z,99134.16
2022-12-15T11:12:29.503Z,99132.94
2022-12-15T11:14:57.696Z,99134.88
2022-12-15T11:17:25.809Z,99119.06
2022-12-15T11:20:02.252Z,99129.69
2022-12-15T11:22:36.637Z,99129.34
2022-12-15T11:25:10.920Z,99119.31
2022-12-15T11:27:39.840Z,99123.25
2022-12-15T11:30:13.827Z,99114.31
2022-12-15T11:32:44.026Z,99109.72
2022-12-15T11:35:13.941Z,99104.63
2022-12-15T11:37:43.807Z,99104.19
2022-12-15T11:40:39.717Z,99110.53
2022-12-15T11:43:36.757Z,99105.03
2022-12-15T11:46:20.100Z,99092.53
2022-12-15T11:49:01.387Z,99087.69
2022-12-15T11:51:40.451Z,99078.16
2022-12-15T11:54:18.189Z,99069.06
2022-12-15T11:56:49.199Z,99060.38
2022-12-15T11:59:39.508Z,99050.84
2022-12-15T12:02:40.716Z,99045.09
2022-12-15T12:05:27.849Z,99064.75
2022-12-15T12:08:00.260Z,99066.75
2022-12-15T12:10:32.751Z,99069.72
2022-12-15T12:13:10.780Z,99078.50
2022-12-15T12:15:45.027Z,99078.28
2022-12-15T12:18:18.248Z,99072.34
2022-12-15T12:20:49.605Z,99057.06
2022-12-15T12:23:21.394Z,99049.56
2022-12-15T12:26:02.779Z,99042.31
2022-12-15T12:28:36.951Z,99044.38
2022-12-15T12:31:05.115Z,99019.41
2022-12-15T12:33:36.336Z,99019.50
2022-12-15T12:36:06.987Z,99019.53
2022-12-15T12:38:38.959Z,99014.41
2022-12-15T12:41:10.756Z,99021.91
2022-12-15T12:43:43.420Z,99008.19
2022-12-15T12:46:15.061Z,99012.22
2022-12-15T12:48:46.236Z,99016.44
2022-12-15T12:51:27.274Z,98999.38
2022-12-15T12:53:55.775Z,99001.69
2022-12-15T12:56:40.743Z,99003.44
2022-12-15T12:59:37.281Z,99004.47
2022-12-15T13:02:42.855Z,99001.28
2022-12-15T13:05:29.503Z,98989.63
2022-12-15T13:08:17.209Z,98984.75
2022-12-15T13:10:47.256Z,98984.94
2022-12-15T13:13:21.398Z,98990.03
2022-12-15T13:15:51.532Z,98986.53
2022-12-15T13:18:22.344Z,98968.69
2022-12-15T13:20:51.360Z,98964.38
2022-12-15T13:23:43.174Z,98955.94
2022-12-15T13:26:15.345Z,98964.22
2022-12-15T13:28:46.984Z,98960.47
2022-12-15T13:31:42.902Z,98954.03
2022-12-15T13:34:20.665Z,98953.53
2022-12-15T13:36:55.201Z,98949.66
2022-12-15T13:39:59.181Z,98951.00
2022-12-15T13:45:43.828Z,98957.47
2022-12-15T13:48:38.064Z,98954.25
2022-12-15T13:51:30.069Z,98947.97
2022-12-15T13:54:01.622Z,98953.41
2022-12-15T13:56:50.820Z,98952.34
2022-12-15T13:59:38.514Z,98943.56
2022-12-15T14:02:26.503Z,98937.03
2022-12-15T14:05:16.125Z,98938.09
2022-12-15T14:07:52.615Z,98933.66
2022-12-15T14:10:24.467Z,98943.84
2022-12-15T14:12:53.738Z,98939.53
2022-12-15T14:15:29.200Z,98927.22
2022-12-15T14:17:57.551Z,98922.16
2022-12-15T14:20:30.661Z,98918.59
2022-12-15T14:22:58.880Z,98917.50
2022-12-15T14:25:29.305Z,98913.34
2022-12-15T14:27:57.711Z,98909.91
2022-12-15T14:30:29.274Z,98902.41
2022-12-15T14:32:59.205Z,98904.25
2022-12-15T14:35:31.585Z,98896.81
2022-12-15T14:38:01.688Z,98904.22
2022-12-15T14:40:29.934Z,98911.50
2022-12-15T14:42:58.051Z,98916.19
2022-12-15T14:45:29.171Z,98922.53
2022-12-15T14:48:39.636Z,98928.53
2022-12-15T14:50:48.791Z,98938.00
2022-12-15T14:53:18.847Z,98941.88
2022-12-15T14:55:47.399Z,98940.25
2022-12-15T14:58:28.512Z,98941.53
2022-12-15T15:00:57.301Z,98946.72
2022-12-15T15:03:13.202Z,98950.06
2022-12-15T15:03:36.854Z,98944.25
2022-12-15T15:06:08.487Z,98955.38
2022-12-15T15:08:42.736Z,98942.63
2022-12-15T15:11:24.440Z,98947.53
2022-12-15T15:13:55.988Z,98949.78
2022-12-15T15:16:24.711Z,98949.56
2022-12-15T15:18:54.553Z,98955.22
2022-12-15T15:21:25.352Z,98959.91
2022-12-15T15:24:01.210Z,98970.50
2022-12-15T15:26:30.897Z,98982.00
2022-12-15T15:28:59.290Z,98984.09
2022-12-15T15:31:36.779Z,98970.91
2022-12-15T15:34:06.869Z,98977.00
2022-12-15T15:36:38.042Z,98979.03
2022-12-15T15:39:11.640Z,98980.97
2022-12-15T15:41:39.856Z,98979.44
2022-12-15T15:44:13.123Z,98981.38
2022-12-15T15:46:46.118Z,98985.78
2022-12-15T15:49:16.372Z,98985.13
2022-12-15T15:51:45.917Z,98986.88
2022-12-15T15:54:15.846Z,98981.06
2022-12-15T15:56:44.007Z,98977.00
2022-12-15T15:59:13.985Z,98977.16
2022-12-15T16:01:42.261Z,98972.22
2022-12-15T16:04:10.550Z,98974.91
2022-12-15T16:06:43.522Z,98970.03
2022-12-15T16:09:16.764Z,98970.13
2022-12-15T16:11:44.947Z,98966.03
2022-12-15T16:14:14.127Z,98961.88
2022-12-15T16:16:42.709Z,98956.00
2022-12-15T16:19:11.959Z,98955.25
2022-12-15T16:21:40.437Z,98959.53
2022-12-15T16:24:12.289Z,98959.59
2022-12-15T16:26:41.786Z,98961.38
2022-12-15T16:29:14.067Z,98973.31
2022-12-15T16:31:45.384Z,98980.16
2022-12-15T16:34:13.964Z,98977.72
2022-12-15T16:36:42.303Z,98982.88
2022-12-15T16:39:26.585Z,98988.84
2022-12-15T16:41:57.175Z,98984.66
2022-12-15T16:44:25.815Z,98988.03
2022-12-15T16:46:54.261Z,98991.44
2022-12-15T16:49:22.616Z,98999.03
2022-12-15T16:51:52.732Z,98991.44
2022-12-15T16:54:23.258Z,98986.38
2022-12-15T16:56:52.916Z,98992.34
2022-12-15T16:59:39.169Z,98988.97
2022-12-15T17:02:29.772Z,98984.75
2022-12-15T17:04:58.164Z,98978.84
2022-12-15T17:07:27.553Z,98969.59
2022-12-15T17:09:55.991Z,98987.34
2022-12-15T17:12:24.232Z,98992.44
2022-12-15T17:14:53.690Z,98989.06
2022-12-15T17:17:21.884Z,98994.25
2022-12-15T17:20:28.059Z,98992.63
2022-12-15T17:22:40.247Z,98992.69
2022-12-15T17:25:14.563Z,98997.75
2022-12-15T17:27:42.692Z,98999.44
2022-12-15T17:30:15.059Z,99001.91
2022-12-15T17:32:43.405Z,99001.03
2022-12-15T17:35:12.181Z,98987.53
2022-12-15T17:37:40.793Z,98975.66
2022-12-15T17:40:17.644Z,98976.47
2022-12-15T17:42:46.247Z,98968.03
2022-12-15T17:45:19.199Z,98976.53
2022-12-15T17:47:47.473Z,98969.81
2022-12-15T17:50:15.746Z,98958.88
2022-12-15T17:52:46.285Z,98964.78
2022-12-15T17:55:23.701Z,98946.22
2022-12-15T17:57:53.522Z,98951.06
2022-12-15T18:00:25.693Z,98950.03
2022-12-15T18:02:54.615Z,98933.84
2022-12-15T18:05:26.087Z,98932.06
2022-12-15T18:07:56.977Z,98930.34
2022-12-15T18:10:29.901Z,98930.47
2022-12-15T18:12:58.146Z,98930.50
2022-12-15T18:15:29.010Z,98923.72
2022-12-15T18:17:57.300Z,98928.72
2022-12-15T18:20:25.927Z,98922.88
2022-12-15T18:22:54.115Z,98928.91
2022-12-15T18:25:25.866Z,98918.91
2022-12-15T18:27:54.120Z,98922.41
2022-12-15T18:30:23.301Z,98918.31
2022-12-15T18:32:55.335Z,98913.25
2022-12-15T18:35:25.558Z,98913.25
2022-12-15T18:37:53.772Z,98905.63
2022-12-15T18:40:25.367Z,98906.44
2022-12-15T18:42:54.312Z,98901.31
2022-12-15T18:45:25.874Z,98905.53
2022-12-15T18:47:56.383Z,98908.00
2022-12-15T18:50:25.591Z,98901.94
2022-12-15T18:52:59.532Z,98899.25
2022-12-15T18:55:29.838Z,98890.59
2022-12-15T18:57:58.774Z,98894.59
2022-12-15T19:00:28.512Z,98898.69
2022-12-15T19:02:59.972Z,98905.28
2022-12-15T19:05:29.223Z,98908.50
2022-12-15T19:08:00.267Z,98897.38
2022-12-15T19:10:28.849Z,98898.94
2022-12-15T19:12:58.812Z,98890.41
2022-12-15T19:15:27.318Z,98900.38
2022-12-15T19:18:14.515Z,98887.66
2022-12-15T19:21:00.473Z,98891.78
2022-12-15T19:23:28.906Z,98885.75
2022-12-15T19:25:57.531Z,98882.28
2022-12-15T19:28:25.800Z,98876.25
2022-12-15T19:30:54.006Z,98861.81
2022-12-15T19:33:24.150Z,98863.50
2022-12-15T19:35:54.818Z,98857.63
2022-12-15T19:38:25.302Z,98860.16
2022-12-15T19:40:56.501Z,98862.66
2022-12-15T19:43:25.812Z,98866.00
2022-12-15T19:45:54.290Z,98869.31
2022-12-15T19:48:24.496Z,98867.59
2022-12-15T19:50:54.746Z,98874.38
2022-12-15T19:53:25.643Z,98868.41
2022-12-15T19:55:55.051Z,98861.56
2022-12-15T19:58:28.501Z,98864.06
2022-12-15T20:00:58.058Z,98868.38
2022-12-15T20:03:28.105Z,98870.84
2022-12-15T20:05:57.359Z,98873.34
2022-12-15T20:08:26.807Z,98877.59
2022-12-15T20:10:55.032Z,98877.63
2022-12-15T20:13:23.479Z,98874.31
2022-12-15T20:15:51.713Z,98867.56
2022-12-15T20:18:20.062Z,98869.31
2022-12-15T20:20:49.625Z,98881.22
2022-12-15T20:23:19.815Z,98883.84
2022-12-15T20:25:48.102Z,98883.84
2022-12-15T20:28:19.820Z,98887.25
2022-12-15T20:30:48.319Z,98897.41
2022-12-15T20:33:16.700Z,98888.19
2022-12-15T20:35:46.073Z,98890.94
2022-12-15T20:38:29.894Z,98901.22
2022-12-15T20:40:58.624Z,98902.00
2022-12-15T20:43:27.518Z,98896.94
2022-12-15T20:46:05.685Z,98899.66
2022-12-15T20:48:34.792Z,98898.22
2022-12-15T20:51:07.428Z,98908.72
2022-12-15T20:53:38.829Z,98907.31
2022-12-15T20:56:07.631Z,98910.06
2022-12-15T20:58:41.694Z,98913.66
2022-12-15T21:01:19.619Z,98903.75
2022-12-15T21:04:19.546Z,98906.50
2022-12-15T21:07:10.890Z,98909.22
2022-12-15T21:10:00.683Z,98907.63
2022-12-15T21:12:50.252Z,98910.13
2022-12-15T21:15:38.662Z,98913.47
2022-12-15T21:19:03.904Z,98902.44
2022-12-15T21:21:37.219Z,98896.53
2022-12-15T21:24:26.986Z,98904.16
2022-12-15T21:27:16.774Z,98903.31
2022-12-15T21:30:15.079Z,98902.44
2022-12-15T21:33:03.489Z,98909.16
2022-12-15T21:35:51.956Z,98901.59
2022-12-15T21:38:40.597Z,98902.41
2022-12-15T21:41:29.023Z,98898.09
2022-12-15T21:44:18.848Z,98899.69
2022-12-15T21:47:11.385Z,98891.94
2022-12-15T21:49:59.021Z,98904.50
2022-12-15T21:52:47.600Z,98901.06
2022-12-15T21:55:35.993Z,98909.56
2022-12-15T21:58:24.898Z,98924.91
2022-12-15T22:01:16.001Z,98921.56
2022-12-15T22:04:05.692Z,98919.88
2022-12-15T22:06:54.160Z,98921.56
2022-12-15T22:09:42.576Z,98921.50
2022-12-15T22:12:30.996Z,98918.13
2022-12-15T22:15:20.963Z,98919.00
2022-12-15T22:18:13.424Z,98911.44
2022-12-15T22:21:01.839Z,98912.34
2022-12-15T22:23:50.813Z,98909.13
2022-12-15T22:26:39.972Z,98917.72
2022-12-15T22:29:31.441Z,98920.25
2022-12-15T22:32:19.892Z,98918.66
2022-12-15T22:35:15.527Z,98913.59
2022-12-15T22:38:03.963Z,98914.47
2022-12-15T22:40:53.499Z,98914.44
2022-12-15T22:43:45.658Z,98919.47
2022-12-15T22:46:34.134Z,98912.72
2022-12-15T22:49:25.915Z,98918.66
2022-12-15T22:52:18.680Z,98914.47
2022-12-15T22:55:08.170Z,98917.84
2022-12-15T22:57:59.266Z,98927.13
2022-12-15T23:00:47.808Z,98926.34
2022-12-15T23:03:36.853Z,98928.94
2022-12-15T23:06:25.744Z,98932.47
2022-12-15T23:09:15.523Z,98929.19
2022-12-15T23:12:03.082Z,98930.97
2022-12-15T23:15:09.148Z,98920.84
2022-12-15T23:17:57.598Z,98925.09
2022-12-15T23:20:46.418Z,98931.84
2022-12-15T23:23:35.292Z,98928.50
2022-12-15T23:26:25.949Z,98923.47
2022-12-15T23:29:14.646Z,98922.69
2022-12-15T23:32:03.509Z,98921.88
2022-12-15T23:34:51.967Z,98918.56
2022-12-15T23:37:40.691Z,98915.22
2022-12-15T23:40:29.144Z,98911.03
2022-12-15T23:43:19.267Z,98908.56
2022-12-15T23:46:07.898Z,98908.59
2022-12-15T23:48:56.888Z,98903.59
2022-12-15T23:51:45.318Z,98897.72
2022-12-15T23:54:33.719Z,98897.75
2022-12-15T23:57:22.201Z,98892.78
